Time;durP1;ratioP1;P1;durP2;ratioP2;P2;SDS_P1;SDS_P2;PMS_P1;PMS_P2;Temp;Humidity;BMP_temperature;BMP_pressure;BME280_temperature;BME280_humidity;BME280_pressure;Samples;Min_cycle;Max_cycle;Signal;HPM_P1;HPM_P2
2022/08/11 00:01:59;;;;;;;5.30;2.42;;;;;;;-146.58;100.00;69501.63;5032450;28;20029;-60
2022/08/11 00:04:26;;;;;;;5.97;2.10;;;;;;;-146.58;100.00;69501.63;5030798;28;20458;-60
2022/08/11 00:06:53;;;;;;;4.20;2.10;;;;;;;-146.58;100.00;69501.63;5020266;28;20045;-59
2022/08/11 00:09:21;;;;;;;6.57;1.80;;;;;;;-146.58;100.00;69501.63;5011171;28;20038;-60
2022/08/11 00:11:52;;;;;;;17.20;3.50;;;;;;;-146.58;100.00;69501.63;5012637;28;20033;-59
2022/08/11 00:14:24;;;;;;;9.23;2.55;;;;;;;-146.58;100.00;69501.63;5011461;28;20029;-59
2022/08/11 00:17:08;;;;;;;6.70;2.55;;;;;;;-146.58;100.00;69501.63;5012768;28;20083;-63
2022/08/11 00:19:38;;;;;;;3.60;2.72;;;;;;;-146.58;100.00;69501.63;5011476;28;20034;-62
2022/08/11 00:22:05;;;;;;;2.33;2.05;;;;;;;-146.58;100.00;69501.63;5031680;28;20530;-62
2022/08/11 00:24:36;;;;;;;4.57;2.25;;;;;;;-146.58;100.00;69501.63;5030963;28;20091;-61
2022/08/11 00:27:02;;;;;;;4.35;2.28;;;;;;;-146.58;100.00;69501.63;5032026;28;20049;-62
2022/08/11 00:29:28;;;;;;;7.82;2.20;;;;;;;-146.58;100.00;69501.63;5024296;28;20099;-61
2022/08/11 00:31:56;;;;;;;7.20;2.03;;;;;;;-146.58;100.00;69501.63;5012401;28;20026;-62
2022/08/11 00:34:25;;;;;;;1.90;1.80;;;;;;;-146.58;100.00;69501.63;5016251;28;20045;-62
2022/08/11 00:37:02;;;;;;;6.90;2.40;;;;;;;-146.58;100.00;69501.63;5025553;28;20139;-62
2022/08/11 00:39:32;;;;;;;6.43;2.60;;;;;;;-146.58;100.00;69501.63;5011012;28;20375;-62
2022/08/11 00:42:16;;;;;;;6.35;2.85;;;;;;;-146.58;100.00;69501.63;5012067;28;20038;-62
2022/08/11 00:44:54;;;;;;;4.00;2.08;;;;;;;-146.58;100.00;69501.63;5010932;28;20498;-62
2022/08/11 00:47:32;;;;;;;3.75;2.10;;;;;;;-146.58;100.00;69501.63;5012385;28;20021;-61
2022/08/11 00:50:02;;;;;;;2.53;2.28;;;;;;;-146.58;100.00;69501.63;5010738;28;20049;-62
2022/08/11 00:52:46;;;;;;;2.03;1.83;;;;;;;-146.58;100.00;69501.63;5020755;28;20025;-61
2022/08/11 00:55:52;;;;;;;4.40;3.03;;;;;;;-146.58;100.00;69501.63;5030192;28;20099;-62
2022/08/11 00:58:46;;;;;;;5.30;3.00;;;;;;;-146.58;100.00;69501.63;5031381;28;20393;-62
2022/08/11 01:01:14;;;;;;;4.57;2.70;;;;;;;-146.58;100.00;69501.63;5030257;28;20132;-62
2022/08/11 01:04:03;;;;;;;5.93;2.05;;;;;;;-146.58;100.00;69501.63;5017314;28;20064;-62
2022/08/11 01:06:51;;;;;;;4.55;2.35;;;;;;;-146.58;100.00;69501.63;5010341;28;20220;-62
2022/08/11 01:09:53;;;;;;;2.80;2.42;;;;;;;-146.58;100.00;69501.63;5010750;28;20044;-61
2022/08/11 01:12:55;;;;;;;7.28;2.15;;;;;;;-146.58;100.00;69501.63;5010772;28;20028;-61
2022/08/11 01:16:02;;;;;;;2.88;2.45;;;;;;;-146.58;100.00;69501.63;5014681;28;20041;-61
2022/08/11 01:19:17;;;;;;;4.38;2.28;;;;;;;-146.58;100.00;69501.63;5012168;28;20042;-61
2022/08/11 01:22:01;;;;;;;7.15;2.55;;;;;;;-146.58;100.00;69501.63;5028523;28;20037;-60
2022/08/11 01:25:01;;;;;;;3.67;2.45;;;;;;;-146.58;100.00;69501.63;5029927;28;20033;-60
2022/08/11 01:27:50;;;;;;;4.03;2.33;;;;;;;-146.58;100.00;69501.63;5023814;28;20044;-60
2022/08/11 01:30:43;;;;;;;5.50;2.70;;;;;;;-146.58;100.00;69501.63;5010201;28;20512;-60
2022/08/11 01:33:42;;;;;;;2.85;2.35;;;;;;;-146.58;100.00;69501.63;5030682;28;20037;-60
2022/08/11 01:36:31;;;;;;;4.13;2.30;;;;;;;-146.58;100.00;69501.63;5029979;28;20122;-60
2022/08/11 01:39:11;;;;;;;3.00;2.58;;;;;;;-146.58;100.00;69501.63;5031208;28;20112;-60
2022/08/11 01:45:08;;;;;;;4.67;2.80;;;;;;;-146.58;100.00;69501.63;5010469;28;20044;-61
2022/08/11 01:47:49;;;;;;;4.10;2.83;;;;;;;-146.58;100.00;69501.63;5010723;28;20107;-62
2022/08/11 01:50:33;;;;;;;6.05;2.42;;;;;;;-146.58;100.00;69501.63;5011057;28;20528;-61
2022/08/11 01:53:14;;;;;;;4.13;2.80;;;;;;;-146.58;100.00;69501.63;5011423;28;20362;-62
2022/08/11 01:55:56;;;;;;;7.22;3.22;;;;;;;-146.58;100.00;69501.63;5017824;28;20206;-61
2022/08/11 01:58:43;;;;;;;4.22;2.90;;;;;;;-146.58;100.00;69501.63;5030933;28;20358;-61
2022/08/11 02:01:39;;;;;;;5.57;2.55;;;;;;;-146.58;100.00;69501.63;5009520;28;20131;-60
2022/08/11 02:04:38;;;;;;;5.53;3.10;;;;;;;-146.58;100.00;69501.63;5010106;28;20029;-60
2022/08/11 02:07:17;;;;;;;5.78;3.20;;;;;;;-146.58;100.00;69501.63;5010680;28;20040;-60
2022/08/11 02:13:27;;;;;;;6.22;2.92;;;;;;;-146.58;100.00;69501.63;5013314;28;20084;-60
2022/08/11 02:16:16;;;;;;;2.80;2.55;;;;;;;-146.58;100.00;69501.63;5031247;28;20567;-62
2022/08/11 02:24:41;;;;;;;4.35;3.92;;;;;;;-146.58;100.00;69501.63;5032280;28;20061;-62
2022/08/11 02:27:17;;;;;;;5.03;3.70;;;;;;;-146.58;100.00;69501.63;5034051;28;20057;-61
2022/08/11 02:29:53;;;;;;;4.05;3.53;;;;;;;-146.58;100.00;69501.63;5033273;28;20038;-61
2022/08/11 02:35:47;;;;;;;5.32;3.55;;;;;;;-146.58;100.00;69501.63;5013695;28;20175;-61
2022/08/11 02:38:32;;;;;;;8.02;3.25;;;;;;;-146.58;100.00;69501.63;5013653;28;20038;-61
2022/08/11 02:42:21;;;;;;;5.28;3.95;;;;;;;-146.58;100.00;69501.63;5013211;28;20049;-62
2022/08/11 02:44:32;;;;;;;4.15;3.75;;;;;;;-146.58;100.00;69501.63;5014517;28;20038;-58
2022/08/11 02:47:05;;;;;;;4.15;3.65;;;;;;;-146.58;100.00;69501.63;5013072;28;20229;-63
2022/08/11 02:49:53;;;;;;;4.35;2.88;;;;;;;-146.58;100.00;69501.63;5013101;28;20437;-62
2022/08/11 02:52:50;;;;;;;4.05;3.60;;;;;;;-146.58;100.00;69501.63;5015321;28;20030;-61
2022/08/11 02:55:42;;;;;;;6.30;3.78;;;;;;;-146.58;100.00;69501.63;5032675;28;20460;-61
2022/08/11 02:58:19;;;;;;;7.63;4.60;;;;;;;-146.58;100.00;69501.63;5033854;28;20033;-61
2022/08/11 03:00:52;;;;;;;5.80;3.75;;;;;;;-146.58;100.00;69501.63;5028642;28;20037;-62
2022/08/11 03:03:29;;;;;;;8.82;4.35;;;;;;;-146.58;100.00;69501.63;5014085;28;20037;-62
2022/08/11 03:06:22;;;;;;;7.38;3.55;;;;;;;-146.58;100.00;69501.63;5017268;28;20069;-62
2022/08/11 03:08:58;;;;;;;4.05;3.42;;;;;;;-146.58;100.00;69501.63;5033883;28;20096;-62
2022/08/11 03:18:21;;;;;;;3.53;3.22;;;;;;;15.60;100.00;164644.16;5024363;28;20055;-61
2022/08/11 03:21:05;;;;;;;4.88;3.28;;;;;;;14.85;100.00;164449.25;5022943;28;20640;-61
2022/08/11 03:23:45;;;;;;;4.82;3.70;;;;;;;14.77;100.00;164427.59;5021696;28;20017;-61
2022/08/11 03:26:37;;;;;;;4.97;3.00;;;;;;;14.67;100.00;164400.50;5012325;28;20046;-61
2022/08/11 03:29:10;;;;;;;4.35;3.72;;;;;;;14.66;100.00;164397.81;5013013;28;20103;-62
2022/08/11 03:31:51;;;;;;;11.43;3.42;;;;;;;14.64;100.00;164392.31;5013471;28;20026;-61
2022/08/11 03:34:29;;;;;;;7.55;3.80;;;;;;;14.62;100.00;164386.94;5013452;28;20032;-61
2022/08/11 03:43:44;;;;;;;5.70;3.47;;;;;;;14.55;100.00;164370.72;5014012;28;20084;-61
2022/08/11 03:46:14;;;;;;;5.22;4.18;;;;;;;14.54;100.00;164368.00;5011982;28;20088;-61
2022/08/11 03:48:56;;;;;;;5.75;4.63;;;;;;;14.56;100.00;164372.06;5014206;28;20120;-61
2022/08/11 03:51:46;;;;;;;3.97;3.58;;;;;;;14.57;100.00;164374.78;5011925;28;20072;-61
2022/08/11 03:54:44;;;;;;;5.15;3.15;;;;;;;14.54;100.00;164366.63;5012795;28;20377;-60
2022/08/11 03:57:54;;;;;;;6.00;4.13;;;;;;;14.46;100.00;164346.34;5013418;28;20026;-59
2022/08/11 04:00:47;;;;;;;4.60;4.15;;;;;;;14.42;100.00;164335.50;5011506;28;20441;-59
2022/08/11 04:03:36;;;;;;;4.65;3.83;;;;;;;14.39;100.00;164327.41;5014293;28;20125;-60
2022/08/11 04:06:33;;;;;;;4.43;3.83;;;;;;;14.33;100.00;164311.19;5011884;28;20057;-58
2022/08/11 04:09:36;;;;;;;3.58;3.35;;;;;;;14.23;100.00;164286.81;5011769;28;20420;-57
2022/08/11 04:12:17;;;;;;;5.75;4.18;;;;;;;14.15;100.00;164263.84;5013137;28;20022;-65
2022/08/11 04:18:15;;;;;;;4.97;4.57;;;;;;;13.90;100.00;164200.25;5018451;28;20570;-62
2022/08/11 04:20:46;;;;;;;;;;;;;;;13.80;100.00;164174.53;5012126;28;20046;-63
2022/08/11 04:23:49;;;;;;;6.50;4.53;;;;;;;13.72;100.00;164151.56;5012528;28;19964;-62
2022/08/11 04:26:40;;;;;;;4.93;4.40;;;;;;;13.62;100.00;164127.22;5015041;28;20547;-62
2022/08/11 04:29:37;;;;;;;6.18;4.85;;;;;;;13.56;100.00;164111.00;5023577;28;20044;-62
2022/08/11 04:32:20;;;;;;;6.60;3.67;;;;;;;13.55;100.00;164108.28;5027277;28;20025;-62
2022/08/11 04:34:57;;;;;;;5.93;5.15;;;;;;;13.58;100.00;164116.41;5031160;28;20037;-62
2022/08/11 04:37:42;;;;;;;5.93;4.30;;;;;;;13.61;100.00;164124.50;5031644;28;20088;-62
2022/08/11 04:40:55;;;;;;;8.23;4.90;;;;;;;13.67;100.00;164138.00;5015876;28;20052;-62
2022/08/11 04:44:06;;;;;;;8.75;5.47;;;;;;;13.74;100.00;164156.94;5004480;28;20099;-62
2022/08/11 04:46:41;;;;;;;6.28;5.00;;;;;;;13.78;100.00;164169.13;5018448;28;20049;-62
2022/08/11 05:01:40;;;;;;;8.65;5.60;;;;;;;14.39;100.00;164328.75;5019522;28;20148;-59
2022/08/11 05:07:20;;;;;;;9.27;4.80;;;;;;;14.50;100.00;164357.16;5023832;28;20048;-59
2022/08/11 05:09:51;;;;;;;5.93;4.10;;;;;;;14.78;100.00;164430.25;5017189;28;20038;-59
2022/08/11 05:12:25;;;;;;;4.32;3.92;;;;;;;14.89;100.00;164460.06;5018170;28;20026;-59
2022/08/11 05:35:02;;;;;;;6.70;4.10;;;;;;;16.07;100.00;164768.75;5018609;28;20556;-60
2022/08/11 05:37:27;;;;;;;5.78;4.20;;;;;;;16.18;100.00;164798.56;5017965;28;20216;-60
2022/08/11 05:56:42;;;;;;;5.10;3.75;;;;;;;17.07;100.00;165030.25;5010218;28;20056;-61
2022/08/11 05:59:14;;;;;;;10.57;3.70;;;;;;;17.21;100.00;165066.84;5026709;28;20037;-61
2022/08/11 06:01:40;;;;;;;5.90;3.65;;;;;;;17.34;100.00;165102.06;5025004;28;20043;-61
2022/08/11 06:04:15;;;;;;;5.90;3.60;;;;;;;17.45;100.00;165130.53;5010227;28;20036;-60
2022/08/11 06:07:02;;;;;;;6.00;3.50;;;;;;;17.57;100.00;165161.72;5010895;28;20041;-58
2022/08/11 06:09:31;;;;;;;4.07;3.50;;;;;;;17.71;100.00;165198.31;5015800;28;20500;-58
2022/08/11 06:12:00;;;;;;;5.30;3.38;;;;;;;17.85;100.00;165234.88;5019989;28;20034;-60
2022/08/11 06:14:26;;;;;;;4.25;3.15;;;;;;;18.00;100.00;165275.59;5009779;28;20049;-60
2022/08/11 06:16:55;;;;;;;8.57;4.28;;;;;;;18.17;100.00;165319.00;5010537;28;20034;-60
2022/08/11 06:19:22;;;;;;;4.35;3.28;;;;;;;18.33;100.00;165362.41;5019530;28;20073;-60
2022/08/11 06:21:50;;;;;;;4.20;2.85;;;;;;;18.49;100.00;165404.44;5025345;28;20027;-60
2022/08/11 06:24:17;;;;;;;12.50;3.83;;;;;;;18.60;100.00;165432.91;5029152;28;20116;-60
2022/08/11 06:26:50;;;;;;;5.53;3.83;;;;;;;18.83;100.00;165492.56;5018306;28;20013;-60
2022/08/11 06:29:18;;;;;;;6.10;3.58;;;;;;;19.05;100.00;165549.59;5015918;28;20541;-60
2022/08/11 06:31:55;;;;;;;4.53;1.92;;;;;;;19.23;100.00;165598.44;5011809;28;20519;-61
2022/08/11 06:34:58;;;;;;;2.80;2.38;;;;;;;19.47;100.00;165660.88;5022845;28;20532;-61
2022/08/11 06:37:42;;;;;;;4.25;2.58;;;;;;;19.68;100.00;165715.13;5029613;28;20389;-61
2022/08/11 06:40:26;;;;;;;4.28;2.53;;;;;;;19.83;100.00;165755.84;5018566;28;20042;-61
2022/08/11 06:43:05;;;;;;;3.13;2.78;;;;;;;20.04;100.00;165810.16;5029253;28;20053;-60
2022/08/11 06:45:47;;;;;;;2.67;2.13;;;;;;;20.22;100.00;165859.00;5028790;28;20045;-61
2022/08/11 06:48:21;;;;;;;4.05;2.58;;;;;;;20.43;100.00;165913.34;5029409;28;20603;-60
2022/08/11 06:51:13;;;;;;;3.78;2.55;;;;;;;20.61;100.00;165962.19;5027616;28;20136;-61
2022/08/11 06:53:44;;;;;;;4.53;2.15;;;;;;;20.86;100.00;166026.03;5014284;28;20073;-61
2022/08/11 07:01:46;;;;;;;3.13;2.00;;;;;;;21.87;100.00;166292.28;5011243;28;20040;-61
2022/08/11 07:04:17;;;;;;;10.13;3.40;;;;;;;22.77;100.00;166530.13;5012775;28;20104;-59
2022/08/11 07:15:55;;;;;;;7.45;2.45;;;;;;;27.06;100.00;167659.63;5016988;28;20061;-58
2022/08/11 07:29:45;;;;;;;3.53;1.80;;;;;;;25.59;99.79;167272.88;5013758;28;20104;-58
2022/08/11 07:32:30;;;;;;;5.28;2.78;;;;;;;25.22;100.00;167174.84;5020793;28;20078;-58
2022/08/11 07:35:01;;;;;;;8.02;3.40;;;;;;;24.87;100.00;167082.34;5016332;28;20049;-58
2022/08/11 07:37:32;;;;;;;6.38;2.08;;;;;;;24.79;100.00;167061.94;5027964;28;20029;-58
2022/08/11 07:39:58;;;;;;;7.57;1.80;;;;;;;24.87;100.00;167082.34;5030055;28;20664;-58
2022/08/11 07:42:34;;;;;;;6.85;2.88;;;;;;;24.93;100.00;167097.31;5016577;28;20030;-58
2022/08/11 07:53:17;;;;;;;2.38;1.85;;;;;;;25.23;100.00;167177.56;5012912;28;20124;-58
2022/08/11 07:55:48;;;;;;;4.88;1.58;;;;;;;25.27;99.92;167188.47;5019830;28;20041;-58
2022/08/11 08:20:18;;;;;;;6.22;2.90;;;;;;;26.64;93.41;167547.88;5025730;28;20104;-60
2022/08/11 08:22:47;;;;;;;4.78;1.48;;;;;;;26.79;89.75;167588.78;5031782;28;20469;-58
2022/08/11 08:25:13;;;;;;;5.00;1.95;;;;;;;27.03;89.36;167652.78;5012438;28;20120;-58
2022/08/11 08:27:39;;;;;;;3.72;2.50;;;;;;;27.09;87.82;167667.75;5020408;28;20485;-58
2022/08/11 08:32:51;;;;;;;5.85;2.15;;;;;;;27.38;86.47;167744.03;5031921;28;20101;-58
2022/08/11 08:35:17;;;;;;;2.53;2.20;;;;;;;27.69;83.39;167825.81;5030273;28;20033;-58
2022/08/11 08:37:43;;;;;;;10.52;2.35;;;;;;;27.91;80.52;167884.41;5030209;28;20022;-58
2022/08/11 08:40:09;;;;;;;3.30;1.77;;;;;;;27.92;85.53;167885.75;5030694;28;20064;-58
2022/08/11 08:42:40;;;;;;;3.28;2.05;;;;;;;28.01;83.31;167910.28;5025346;28;20050;-58
2022/08/11 08:45:10;;;;;;;3.45;2.67;;;;;;;28.14;80.86;167944.41;5010993;28;20560;-58
2022/08/11 08:47:40;;;;;;;2.55;1.73;;;;;;;28.29;78.54;167983.91;5014694;28;20465;-58
2022/08/11 08:50:12;;;;;;;12.00;2.10;;;;;;;28.49;78.91;168037.06;5027057;28;20034;-58
2022/08/11 08:52:44;;;;;;;3.17;2.22;;;;;;;28.50;77.88;168039.78;5017149;28;20041;-58
2022/08/11 08:55:15;;;;;;;7.13;2.03;;;;;;;28.47;77.31;168032.97;5016596;28;20045;-58
2022/08/11 08:57:43;;;;;;;4.25;1.83;;;;;;;28.65;75.62;168080.66;5031374;28;20091;-58
2022/08/11 09:00:09;;;;;;;6.25;2.70;;;;;;;28.72;75.12;168097.06;5029909;28;20048;-59
2022/08/11 09:02:35;;;;;;;4.75;2.53;;;;;;;28.78;76.43;168114.75;5019443;28;20029;-59
2022/08/11 09:05:03;;;;;;;9.77;1.90;;;;;;;28.91;74.64;168148.84;5027021;28;20072;-58
2022/08/11 09:07:30;;;;;;;2.72;2.08;;;;;;;28.56;70.87;168054.78;5027545;28;20021;-58
2022/08/11 09:09:58;;;;;;;6.23;2.70;;;;;;;28.76;70.65;168109.34;5030337;28;20033;-58
2022/08/11 09:12:28;;;;;;;;;;;;;;;29.00;70.92;168172.03;5031472;28;20455;-58
2022/08/11 09:15:04;;;;;;;2.53;2.10;;;;;;;29.04;66.90;168182.91;5028877;28;19920;-58
2022/08/11 09:17:53;;;;;;;5.93;2.38;;;;;;;29.20;67.81;168223.81;5014907;28;20497;-58
2022/08/11 09:20:28;;;;;;;5.22;2.70;;;;;;;29.67;66.19;168349.31;5019864;28;20493;-58
2022/08/11 09:28:29;;;;;;;2.33;2.13;;;;;;;30.57;62.26;168586.63;5017071;28;20547;-58
2022/08/11 09:30:56;;;;;;;4.22;2.42;;;;;;;30.81;62.35;168649.38;5009838;28;20091;-58
2022/08/11 09:33:23;;;;;;;12.93;2.97;;;;;;;30.84;58.54;168657.56;5010951;28;20025;-58
2022/08/11 09:35:51;;;;;;;9.57;2.17;;;;;;;30.57;57.34;168586.63;5009873;28;20424;-58
2022/08/11 09:41:06;;;;;;;4.45;2.60;;;;;;;30.85;56.65;168660.31;5009628;28;20597;-58
2022/08/11 09:46:28;;;;;;;13.93;2.63;;;;;;;29.95;53.04;168421.56;5023071;28;20408;-59
2022/08/11 09:48:57;;;;;;;6.20;2.20;;;;;;;30.49;52.88;168566.13;5015787;28;20088;-58
2022/08/11 09:51:24;;;;;;;5.13;2.63;;;;;;;30.63;52.87;168603.03;5029134;28;20037;-59
2022/08/11 09:53:50;;;;;;;3.75;2.00;;;;;;;30.66;52.95;168611.19;5029175;28;20041;-58
2022/08/11 09:59:03;;;;;;;6.90;2.60;;;;;;;30.85;51.52;168660.31;5009972;28;20409;-58
2022/08/11 10:01:33;;;;;;;9.50;2.35;;;;;;;30.78;50.38;168642.56;5011043;28;20057;-58
2022/08/11 10:04:04;;;;;;;6.78;2.63;;;;;;;30.67;50.97;168613.91;5010992;28;20034;-58
2022/08/11 10:09:18;;;;;;;12.45;3.38;;;;;;;30.91;52.29;168676.66;5010729;28;20095;-58
2022/08/11 10:11:45;;;;;;;12.90;2.83;;;;;;;30.47;48.96;168559.31;5011055;28;20405;-58
2022/08/11 10:16:55;;;;;;;8.68;3.08;;;;;;;30.29;51.37;168512.94;5022990;28;20051;-58
2022/08/11 10:19:23;;;;;;;6.03;2.28;;;;;;;30.31;47.75;168517.00;5009201;28;20048;-58
2022/08/11 10:26:49;;;;;;;7.40;2.13;;;;;;;30.56;47.18;168583.94;5011324;28;20030;-58
2022/08/11 10:27:26;;;;;;;6.75;2.42;;;;;;;30.78;49.33;168641.22;5020844;28;20045;-59
2022/08/11 10:35:25;;;;;;;5.68;2.00;;;;;;;31.19;46.17;168750.38;5009565;28;20053;-58
2022/08/11 10:37:51;;;;;;;5.57;2.30;;;;;;;30.63;46.37;168603.03;5015455;28;20028;-58
2022/08/11 10:40:22;;;;;;;2.57;1.60;;;;;;;31.05;46.00;168712.13;5030909;28;20053;-58
2022/08/11 10:43:05;;;;;;;8.32;2.60;;;;;;;30.72;45.10;168624.84;5034634;28;20030;-58
2022/08/11 10:48:26;;;;;;;2.47;1.75;;;;;;;31.49;46.04;168830.88;5018925;28;20088;-58
2022/08/11 10:59:13;;;;;;;5.25;2.00;;;;;;;31.66;43.20;168873.22;5024705;28;20531;-58
2022/08/11 11:01:41;;;;;;;4.57;1.70;;;;;;;31.87;42.34;168930.53;5031438;28;20026;-59
2022/08/11 11:04:12;;;;;;;4.80;1.83;;;;;;;31.74;45.03;168895.06;5024996;28;20026;-58
2022/08/11 11:07:12;;;;;;;7.93;2.30;;;;;;;31.79;44.47;168908.69;5034050;28;20034;-59
2022/08/11 11:09:47;;;;;;;5.25;1.90;;;;;;;31.22;42.88;168758.56;5029506;28;20155;-59
2022/08/11 11:17:56;;;;;;;4.20;1.98;;;;;;;31.19;44.57;168750.38;5031252;28;20036;-58
2022/08/11 11:20:29;;;;;;;15.27;2.80;;;;;;;31.47;43.86;168824.03;5031118;28;20069;-59
2022/08/11 11:23:00;;;;;;;5.45;2.42;;;;;;;31.78;45.59;168905.94;5033713;28;20451;-58
2022/08/11 11:25:40;;;;;;;5.88;2.15;;;;;;;31.96;43.23;168953.72;5022119;28;20045;-58
2022/08/11 11:28:35;;;;;;;9.50;2.30;;;;;;;32.02;42.72;168968.72;5013218;28;20452;-59
2022/08/11 11:31:21;;;;;;;4.80;2.35;;;;;;;32.24;42.41;169028.84;5024199;28;20635;-58
2022/08/11 11:34:16;;;;;;;15.13;2.67;;;;;;;32.11;39.63;168993.31;5032586;28;20053;-58
2022/08/11 11:36:57;;;;;;;6.38;1.65;;;;;;;31.88;40.58;168931.88;5012040;28;20505;-58
2022/08/11 11:39:26;;;;;;;3.25;1.75;;;;;;;31.95;41.20;168952.38;5012058;28;20042;-58
2022/08/11 11:41:55;;;;;;;4.78;1.85;;;;;;;32.04;41.67;168974.19;5015520;28;20026;-58
2022/08/11 11:44:21;;;;;;;2.63;1.67;;;;;;;32.23;41.36;169026.09;5032024;28;20052;-58
2022/08/11 11:46:48;;;;;;;2.63;2.10;;;;;;;32.42;41.57;169075.25;5026903;28;20029;-58
2022/08/11 11:49:17;;;;;;;5.05;2.25;;;;;;;32.38;40.52;169064.31;5012279;28;20045;-58
2022/08/11 11:51:43;;;;;;;9.75;2.38;;;;;;;32.42;41.20;169075.25;5013573;28;20024;-58
2022/08/11 11:54:10;;;;;;;7.18;2.15;;;;;;;32.00;40.32;168964.66;5011900;28;20477;-58
2022/08/11 11:56:37;;;;;;;3.50;1.67;;;;;;;32.07;40.46;168982.34;5013477;28;20030;-58
2022/08/11 12:01:47;;;;;;;4.32;2.42;;;;;;;32.30;40.14;169043.84;5026968;28;20079;-58
2022/08/11 12:04:14;;;;;;;8.57;2.47;;;;;;;32.20;41.13;169017.88;5031812;28;20403;-58
2022/08/11 12:06:40;;;;;;;;;;;;;;;32.18;39.25;169011.00;5033306;28;20041;-58
2022/08/11 12:09:06;;;;;;;2.03;1.40;;;;;;;32.39;41.59;169067.03;5031430;28;20296;-58
2022/08/11 12:14:20;;;;;;;6.28;1.85;;;;;;;32.66;40.97;169138.00;5032027;28;20040;-58
2022/08/11 12:16:47;;;;;;;3.92;2.42;;;;;;;32.67;40.12;169140.72;5017056;28;20113;-58
2022/08/11 12:19:27;;;;;;;4.93;2.08;;;;;;;32.72;39.79;169155.75;5027072;28;20029;-58
2022/08/11 12:27:25;;;;;;;4.75;1.50;;;;;;;31.57;38.54;168851.34;5032540;28;20056;-58
2022/08/11 12:29:56;;;;;;;4.15;1.77;;;;;;;31.35;38.29;168791.31;5031361;28;20034;-58
2022/08/11 12:32:25;;;;;;;7.07;2.08;;;;;;;31.60;38.75;168859.53;5030602;28;20029;-58
2022/08/11 12:34:51;;;;;;;7.30;2.53;;;;;;;31.78;38.84;168905.94;5011283;28;20038;-58
2022/08/11 12:37:22;;;;;;;5.95;2.42;;;;;;;31.86;38.63;168927.78;5012621;28;20056;-58
2022/08/11 12:45:27;;;;;;;2.17;1.83;;;;;;;32.08;40.07;168985.09;5014716;28;20068;-58
2022/08/11 12:53:42;;;;;;;1.98;1.70;;;;;;;32.83;39.08;169184.47;5012237;28;20145;-58
2022/08/11 13:07:07;;;;;;;5.90;2.05;;;;;;;32.66;37.58;169138.00;5032191;28;20063;-58
2022/08/11 13:09:32;;;;;;;5.88;2.65;;;;;;;32.53;38.73;169103.91;5030175;28;20033;-58
2022/08/11 13:14:43;;;;;;;8.30;2.38;;;;;;;32.23;37.30;169024.75;5029481;28;20048;-58
2022/08/11 13:17:20;;;;;;;3.50;1.70;;;;;;;32.37;38.15;169061.56;5031444;28;20030;-58
2022/08/11 13:19:47;;;;;;;5.40;2.10;;;;;;;32.44;39.23;169080.66;5030560;28;20046;-58
2022/08/11 13:22:16;;;;;;;5.07;2.65;;;;;;;32.43;37.59;169078.00;5031748;28;20028;-58
2022/08/11 13:24:42;;;;;;;4.22;1.90;;;;;;;32.38;39.26;169064.31;5029703;28;20080;-58
2022/08/11 13:27:11;;;;;;;2.05;1.58;;;;;;;32.50;38.20;169095.69;5029910;28;20045;-58
2022/08/11 13:29:39;;;;;;;8.18;1.60;;;;;;;32.59;38.12;169121.63;5010347;28;20041;-59
2022/08/11 13:32:05;;;;;;;6.03;1.95;;;;;;;32.34;37.55;169054.75;5011758;28;20032;-58
2022/08/11 13:34:31;;;;;;;8.57;1.75;;;;;;;32.50;37.91;169097.09;5010254;28;20038;-58
2022/08/11 13:36:59;;;;;;;2.85;1.52;;;;;;;32.64;39.26;169132.56;5011507;28;20026;-58
2022/08/11 13:39:28;;;;;;;2.25;1.80;;;;;;;32.64;37.78;169132.56;5011104;28;20121;-58
2022/08/11 13:41:58;;;;;;;3.10;2.00;;;;;;;32.57;38.83;169116.19;5031301;28;20029;-58
2022/08/11 13:44:26;;;;;;;5.57;1.88;;;;;;;32.67;37.60;169142.13;5029922;28;20037;-58
2022/08/11 13:46:55;;;;;;;8.38;1.70;;;;;;;32.74;37.67;169159.84;5031250;28;20032;-61
2022/08/11 13:49:21;;;;;;;4.68;1.50;;;;;;;32.90;37.87;169203.59;5029647;28;20021;-58
2022/08/11 13:51:47;;;;;;;4.15;1.92;;;;;;;32.76;38.07;169165.31;5017136;28;20041;-59
2022/08/11 13:54:19;;;;;;;4.55;2.13;;;;;;;32.04;38.30;168974.19;5013002;28;20036;-58
2022/08/11 13:56:50;;;;;;;8.68;2.13;;;;;;;32.23;38.37;169026.09;5023675;28;20029;-59
2022/08/11 13:59:24;;;;;;;3.95;2.20;;;;;;;32.49;38.04;169094.34;5021959;28;20030;-58
2022/08/11 14:01:54;;;;;;;4.40;1.60;;;;;;;32.54;37.94;169108.00;5012195;28;20022;-58
2022/08/11 14:04:27;;;;;;;2.17;1.80;;;;;;;32.53;38.96;169105.25;5029574;28;20029;-58
2022/08/11 14:06:54;;;;;;;2.40;1.67;;;;;;;31.68;38.22;168878.69;5030207;28;20021;-58
2022/08/11 14:09:24;;;;;;;3.42;1.45;;;;;;;31.88;39.47;168933.25;5016898;28;20034;-58
2022/08/11 14:14:36;;;;;;;14.77;2.45;;;;;;;32.14;38.98;169001.47;5009312;28;20048;-58
2022/08/11 14:17:07;;;;;;;2.33;2.03;;;;;;;32.12;38.73;168996.03;5019965;28;20030;-58
2022/08/11 14:19:37;;;;;;;1.55;1.45;;;;;;;32.11;37.95;168993.31;5016018;28;20047;-58
2022/08/11 14:22:07;;;;;;;1.65;1.55;;;;;;;32.04;37.88;168974.19;5019465;28;20088;-58
2022/08/11 14:24:40;;;;;;;11.60;2.38;;;;;;;31.47;38.17;168824.03;5009692;28;20041;-58
2022/08/11 14:27:07;;;;;;;6.30;1.95;;;;;;;31.56;38.36;168848.59;5011423;28;20045;-58
2022/08/11 14:29:37;;;;;;;2.20;1.90;;;;;;;31.45;37.64;168818.59;5029004;28;20037;-58
2022/08/11 14:32:05;;;;;;;8.38;1.83;;;;;;;31.59;38.44;168856.81;5029790;28;20029;-58
2022/08/11 14:34:33;;;;;;;3.35;1.85;;;;;;;31.67;38.80;168875.94;5030483;28;20033;-58
2022/08/11 14:37:16;;;;;;;5.20;1.65;;;;;;;31.68;38.18;168878.69;5028867;28;20045;-58
2022/08/11 14:39:45;;;;;;;6.97;2.13;;;;;;;31.61;38.02;168860.88;5030037;28;20037;-58
2022/08/11 14:47:53;;;;;;;2.28;1.50;;;;;;;31.04;37.27;168709.38;5014988;28;20033;-58
2022/08/11 14:50:24;;;;;;;4.07;1.65;;;;;;;31.06;37.86;168714.88;5009278;28;20124;-58
2022/08/11 14:52:55;;;;;;;5.15;2.08;;;;;;;31.12;38.40;168731.28;5010665;28;20451;-58
2022/08/11 14:58:14;;;;;;;1.70;1.48;;;;;;;31.18;38.53;168747.63;5011965;28;20037;-58
2022/08/11 15:00:40;;;;;;;7.13;2.38;;;;;;;31.19;40.07;168750.38;5009714;28;20509;-58
2022/08/11 15:03:09;;;;;;;3.80;2.08;;;;;;;31.11;39.21;168728.53;5024746;28;20060;-58
2022/08/11 15:05:40;;;;;;;4.63;2.00;;;;;;;30.79;36.46;168643.94;5029123;28;20040;-58
2022/08/11 15:08:07;;;;;;;7.30;2.17;;;;;;;30.84;38.20;168658.91;5030214;28;20481;-58
2022/08/11 15:10:33;;;;;;;1.70;1.58;;;;;;;30.82;37.19;168652.09;5028491;28;20041;-58
2022/08/11 15:12:59;;;;;;;6.97;2.22;;;;;;;30.61;36.82;168597.56;5030716;28;20481;-58
2022/08/11 15:18:16;;;;;;;3.38;1.60;;;;;;;30.43;37.57;168549.78;5029786;28;20041;-58
2022/08/11 15:37:44;;;;;;;17.50;2.28;;;;;;;30.47;38.25;168559.31;5017776;28;20037;-58
2022/08/11 15:46:18;;;;;;;2.10;1.73;;;;;;;30.13;36.58;168469.28;5013321;28;20064;-58
2022/08/11 15:48:47;;;;;;;6.40;1.70;;;;;;;30.17;36.84;168480.22;5013661;28;20030;-57
2022/08/11 15:51:21;;;;;;;4.10;2.13;;;;;;;30.14;37.22;168472.03;5011939;28;20040;-58
2022/08/11 15:53:52;;;;;;;3.40;1.73;;;;;;;30.16;38.06;168477.50;5013676;28;20612;-58
2022/08/11 15:56:21;;;;;;;4.97;1.50;;;;;;;30.05;37.52;168450.19;5012658;28;20069;-58
2022/08/11 16:04:25;;;;;;;2.30;1.75;;;;;;;29.84;37.32;168392.88;5016604;28;20507;-59
2022/08/11 16:07:01;;;;;;;5.32;1.63;;;;;;;29.88;37.97;168403.81;5030975;28;20469;-58
2022/08/11 16:09:37;;;;;;;6.88;1.33;;;;;;;29.83;37.56;168390.16;5031644;28;20048;-58
2022/08/11 16:12:07;;;;;;;2.33;1.88;;;;;;;29.86;37.89;168398.34;5023076;28;20139;-58
2022/08/11 16:17:25;;;;;;;2.35;1.75;;;;;;;29.75;39.05;168371.06;5031373;28;20108;-57
2022/08/11 16:19:52;;;;;;;5.50;1.98;;;;;;;29.78;38.34;168377.94;5019748;28;20091;-58
2022/08/11 16:22:31;;;;;;;8.47;1.33;;;;;;;29.71;38.33;168360.19;5032465;28;20028;-58
2022/08/11 16:24:59;;;;;;;6.20;2.33;;;;;;;29.63;37.68;168338.38;5018377;28;20057;-58
2022/08/11 16:27:25;;;;;;;3.05;2.72;;;;;;;29.60;38.00;168330.16;5015989;28;20121;-58